sensor_id;sensor_type;location;lat;lon;timestamp;temperature;humidity
8988;DHT22;4529;51.360;12.474;2022-07-29T00:03:08;18.60;99.90
8988;DHT22;4529;51.360;12.474;2022-07-29T00:08:11;18.60;99.90
8988;DHT22;4529;51.360;12.474;2022-07-29T00:13:15;18.60;99.90
8988;DHT22;4529;51.360;12.474;2022-07-29T00:18:18;18.60;99.90
8988;DHT22;4529;51.360;12.474;2022-07-29T00:23:22;18.60;99.90
8988;DHT22;4529;51.360;12.474;2022-07-29T00:28:25;18.50;99.90
8988;DHT22;4529;51.360;12.474;2022-07-29T00:33:29;18.50;99.90
8988;DHT22;4529;51.360;12.474;2022-07-29T00:38:32;18.40;99.90
8988;DHT22;4529;51.360;12.474;2022-07-29T00:43:35;18.40;99.90
8988;DHT22;4529;51.360;12.474;2022-07-29T00:48:39;18.40;99.90
8988;DHT22;4529;51.360;12.474;2022-07-29T00:53:42;18.40;99.90
8988;DHT22;4529;51.360;12.474;2022-07-29T00:58:46;18.30;99.90
8988;DHT22;4529;51.360;12.474;2022-07-29T01:03:49;18.20;99.90
8988;DHT22;4529;51.360;12.474;2022-07-29T01:08:53;18.30;99.90
8988;DHT22;4529;51.360;12.474;2022-07-29T01:13:56;18.20;99.90
8988;DHT22;4529;51.360;12.474;2022-07-29T01:24:48;18.10;99.90
8988;DHT22;4529;51.360;12.474;2022-07-29T01:29:54;18.00;99.90
8988;DHT22;4529;51.360;12.474;2022-07-29T01:35:15;18.00;99.90
8988;DHT22;4529;51.360;12.474;2022-07-29T01:40:34;17.90;99.90
8988;DHT22;4529;51.360;12.474;2022-07-29T01:45:50;18.00;99.90
8988;DHT22;4529;51.360;12.474;2022-07-29T01:51:12;17.90;99.90
8988;DHT22;4529;51.360;12.474;2022-07-29T01:56:13;17.90;99.90
8988;DHT22;4529;51.360;12.474;2022-07-29T02:01:17;17.80;99.90
8988;DHT22;4529;51.360;12.474;2022-07-29T02:06:21;17.80;99.90
8988;DHT22;4529;51.360;12.474;2022-07-29T02:11:23;17.80;99.90
8988;DHT22;4529;51.360;12.474;2022-07-29T02:16:28;17.70;99.90
8988;DHT22;4529;51.360;12.474;2022-07-29T02:21:30;17.70;99.90
8988;DHT22;4529;51.360;12.474;2022-07-29T02:26:34;17.70;99.90
8988;DHT22;4529;51.360;12.474;2022-07-29T02:31:37;17.60;99.90
8988;DHT22;4529;51.360;12.474;2022-07-29T02:36:41;17.50;99.90
8988;DHT22;4529;51.360;12.474;2022-07-29T02:41:48;17.50;99.90
8988;DHT22;4529;51.360;12.474;2022-07-29T02:47:09;17.50;99.90
8988;DHT22;4529;51.360;12.474;2022-07-29T02:52:19;17.50;99.90
8988;DHT22;4529;51.360;12.474;2022-07-29T03:02:46;17.50;99.90
8988;DHT22;4529;51.360;12.474;2022-07-29T03:07:51;17.50;99.90
8988;DHT22;4529;51.360;12.474;2022-07-29T03:12:50;17.40;99.90
8988;DHT22;4529;51.360;12.474;2022-07-29T03:17:53;17.40;99.90
8988;DHT22;4529;51.360;12.474;2022-07-29T03:22:57;17.40;99.90
8988;DHT22;4529;51.360;12.474;2022-07-29T03:28:00;17.40;99.90
8988;DHT22;4529;51.360;12.474;2022-07-29T03:33:05;17.20;99.90
8988;DHT22;4529;51.360;12.474;2022-07-29T03:38:08;17.20;99.90
8988;DHT22;4529;51.360;12.474;2022-07-29T03:43:11;17.30;99.90
8988;DHT22;4529;51.360;12.474;2022-07-29T03:48:16;17.20;99.90
8988;DHT22;4529;51.360;12.474;2022-07-29T03:53:18;17.10;99.90
8988;DHT22;4529;51.360;12.474;2022-07-29T03:58:22;17.10;99.90
8988;DHT22;4529;51.360;12.474;2022-07-29T04:03:25;17.00;99.90
8988;DHT22;4529;51.360;12.474;2022-07-29T04:08:29;17.00;99.90
8988;DHT22;4529;51.360;12.474;2022-07-29T04:13:32;16.90;99.90
8988;DHT22;4529;51.360;12.474;2022-07-29T04:18:36;16.90;99.90
8988;DHT22;4529;51.360;12.474;2022-07-29T04:23:39;16.90;99.90
8988;DHT22;4529;51.360;12.474;2022-07-29T04:28:46;16.90;99.90
8988;DHT22;4529;51.360;12.474;2022-07-29T04:33:49;16.90;99.90
8988;DHT22;4529;51.360;12.474;2022-07-29T04:38:52;17.00;99.90
8988;DHT22;4529;51.360;12.474;2022-07-29T04:43:56;17.00;99.90
8988;DHT22;4529;51.360;12.474;2022-07-29T04:48:59;17.00;99.90
8988;DHT22;4529;51.360;12.474;2022-07-29T04:54:03;16.90;99.90
8988;DHT22;4529;51.360;12.474;2022-07-29T04:59:06;16.90;99.90
8988;DHT22;4529;51.360;12.474;2022-07-29T05:04:10;16.90;99.90
8988;DHT22;4529;51.360;12.474;2022-07-29T05:09:13;16.90;99.90
8988;DHT22;4529;51.360;12.474;2022-07-29T05:14:17;16.90;99.90
8988;DHT22;4529;51.360;12.474;2022-07-29T05:19:20;16.90;99.90
8988;DHT22;4529;51.360;12.474;2022-07-29T05:24:24;17.00;99.90
8988;DHT22;4529;51.360;12.474;2022-07-29T05:29:27;17.10;99.90
8988;DHT22;4529;51.360;12.474;2022-07-29T05:34:31;17.30;99.90
8988;DHT22;4529;51.360;12.474;2022-07-29T05:39:34;17.40;99.90
8988;DHT22;4529;51.360;12.474;2022-07-29T05:44:38;17.50;99.90
8988;DHT22;4529;51.360;12.474;2022-07-29T05:49:41;17.50;99.90
8988;DHT22;4529;51.360;12.474;2022-07-29T05:54:46;17.70;99.90
8988;DHT22;4529;51.360;12.474;2022-07-29T05:59:51;17.80;99.90
8988;DHT22;4529;51.360;12.474;2022-07-29T06:04:54;17.80;99.90
8988;DHT22;4529;51.360;12.474;2022-07-29T06:09:58;18.00;99.90
8988;DHT22;4529;51.360;12.474;2022-07-29T06:15:02;18.00;99.90
8988;DHT22;4529;51.360;12.474;2022-07-29T06:20:06;18.20;99.90
8988;DHT22;4529;51.360;12.474;2022-07-29T06:25:10;18.10;99.90
8988;DHT22;4529;51.360;12.474;2022-07-29T06:30:13;18.30;99.90
8988;DHT22;4529;51.360;12.474;2022-07-29T06:35:17;18.30;99.90
8988;DHT22;4529;51.360;12.474;2022-07-29T06:40:20;18.30;99.90
8988;DHT22;4529;51.360;12.474;2022-07-29T06:45:24;18.40;99.90
8988;DHT22;4529;51.360;12.474;2022-07-29T06:50:27;18.50;99.90
8988;DHT22;4529;51.360;12.474;2022-07-29T06:55:31;18.60;99.90
8988;DHT22;4529;51.360;12.474;2022-07-29T07:00:34;18.70;99.90
8988;DHT22;4529;51.360;12.474;2022-07-29T07:05:38;18.80;99.90
8988;DHT22;4529;51.360;12.474;2022-07-29T07:10:42;18.80;99.90
8988;DHT22;4529;51.360;12.474;2022-07-29T07:15:45;19.00;99.90
8988;DHT22;4529;51.360;12.474;2022-07-29T07:20:48;19.60;99.90
8988;DHT22;4529;51.360;12.474;2022-07-29T07:25:51;20.10;99.90
8988;DHT22;4529;51.360;12.474;2022-07-29T07:30:55;20.80;99.90
8988;DHT22;4529;51.360;12.474;2022-07-29T07:35:58;21.00;99.90
8988;DHT22;4529;51.360;12.474;2022-07-29T07:41:02;21.10;99.90
8988;DHT22;4529;51.360;12.474;2022-07-29T07:46:05;21.40;99.90
8988;DHT22;4529;51.360;12.474;2022-07-29T07:51:09;21.60;99.90
8988;DHT22;4529;51.360;12.474;2022-07-29T07:56:12;22.20;99.90
8988;DHT22;4529;51.360;12.474;2022-07-29T08:01:16;22.60;99.90
8988;DHT22;4529;51.360;12.474;2022-07-29T08:06:19;23.10;99.90
8988;DHT22;4529;51.360;12.474;2022-07-29T08:11:23;23.50;99.90
8988;DHT22;4529;51.360;12.474;2022-07-29T08:16:26;23.90;99.90
8988;DHT22;4529;51.360;12.474;2022-07-29T08:21:29;24.00;99.90
8988;DHT22;4529;51.360;12.474;2022-07-29T08:26:33;24.20;99.90
8988;DHT22;4529;51.360;12.474;2022-07-29T08:31:36;24.70;99.90
8988;DHT22;4529;51.360;12.474;2022-07-29T08:36:40;24.70;99.90
8988;DHT22;4529;51.360;12.474;2022-07-29T08:41:43;25.00;99.90
8988;DHT22;4529;51.360;12.474;2022-07-29T08:46:47;25.20;99.90
8988;DHT22;4529;51.360;12.474;2022-07-29T08:51:50;24.90;99.90
8988;DHT22;4529;51.360;12.474;2022-07-29T08:56:54;25.20;99.90
8988;DHT22;4529;51.360;12.474;2022-07-29T09:01:58;25.60;99.90
8988;DHT22;4529;51.360;12.474;2022-07-29T09:07:03;25.60;99.90
8988;DHT22;4529;51.360;12.474;2022-07-29T09:12:06;25.60;99.90
8988;DHT22;4529;51.360;12.474;2022-07-29T09:17:10;25.40;99.90
8988;DHT22;4529;51.360;12.474;2022-07-29T09:22:27;25.20;99.90
8988;DHT22;4529;51.360;12.474;2022-07-29T09:27:21;25.20;99.90
8988;DHT22;4529;51.360;12.474;2022-07-29T09:32:24;25.60;99.90
8988;DHT22;4529;51.360;12.474;2022-07-29T09:37:28;25.70;99.90
8988;DHT22;4529;51.360;12.474;2022-07-29T09:42:31;25.40;99.90
8988;DHT22;4529;51.360;12.474;2022-07-29T09:47:44;25.70;99.90
8988;DHT22;4529;51.360;12.474;2022-07-29T09:52:50;25.90;99.90
8988;DHT22;4529;51.360;12.474;2022-07-29T09:57:53;25.90;99.40
8988;DHT22;4529;51.360;12.474;2022-07-29T10:02:58;26.10;99.50
8988;DHT22;4529;51.360;12.474;2022-07-29T10:08:02;26.30;98.30
8988;DHT22;4529;51.360;12.474;2022-07-29T10:13:07;26.40;97.30
8988;DHT22;4529;51.360;12.474;2022-07-29T10:18:11;26.60;97.40
8988;DHT22;4529;51.360;12.474;2022-07-29T10:23:14;26.70;95.90
8988;DHT22;4529;51.360;12.474;2022-07-29T10:28:18;26.80;97.30
8988;DHT22;4529;51.360;12.474;2022-07-29T10:39:10;27.00;96.00
8988;DHT22;4529;51.360;12.474;2022-07-29T10:44:12;27.20;95.50
8988;DHT22;4529;51.360;12.474;2022-07-29T10:49:16;27.60;93.30
8988;DHT22;4529;51.360;12.474;2022-07-29T10:54:43;27.60;93.20
8988;DHT22;4529;51.360;12.474;2022-07-29T10:59:44;27.70;91.70
8988;DHT22;4529;51.360;12.474;2022-07-29T11:15:21;27.80;90.10
8988;DHT22;4529;51.360;12.474;2022-07-29T11:20:43;27.90;90.10
8988;DHT22;4529;51.360;12.474;2022-07-29T11:25:52;27.80;90.40
8988;DHT22;4529;51.360;12.474;2022-07-29T11:30:52;27.70;87.80
8988;DHT22;4529;51.360;12.474;2022-07-29T11:36:08;27.70;88.30
8988;DHT22;4529;51.360;12.474;2022-07-29T11:41:29;27.80;87.20
8988;DHT22;4529;51.360;12.474;2022-07-29T11:46:48;28.00;91.10
8988;DHT22;4529;51.360;12.474;2022-07-29T11:51:55;28.20;90.20
8988;DHT22;4529;51.360;12.474;2022-07-29T11:57:01;28.10;90.20
8988;DHT22;4529;51.360;12.474;2022-07-29T12:02:05;28.80;89.80
8988;DHT22;4529;51.360;12.474;2022-07-29T12:07:08;28.80;89.70
8988;DHT22;4529;51.360;12.474;2022-07-29T12:12:12;28.90;86.80
8988;DHT22;4529;51.360;12.474;2022-07-29T12:17:34;28.80;86.70
8988;DHT22;4529;51.360;12.474;2022-07-29T12:22:38;28.70;85.00
8988;DHT22;4529;51.360;12.474;2022-07-29T12:27:42;28.90;87.00
8988;DHT22;4529;51.360;12.474;2022-07-29T12:32:46;28.80;86.90
8988;DHT22;4529;51.360;12.474;2022-07-29T12:37:49;28.70;88.00
8988;DHT22;4529;51.360;12.474;2022-07-29T12:43:22;28.90;85.60
8988;DHT22;4529;51.360;12.474;2022-07-29T12:48:39;28.50;87.00
8988;DHT22;4529;51.360;12.474;2022-07-29T12:53:41;28.70;85.60
8988;DHT22;4529;51.360;12.474;2022-07-29T12:58:45;28.90;89.70
8988;DHT22;4529;51.360;12.474;2022-07-29T13:03:55;28.70;87.60
8988;DHT22;4529;51.360;12.474;2022-07-29T13:09:19;28.70;85.80
8988;DHT22;4529;51.360;12.474;2022-07-29T13:14:35;28.50;87.50
8988;DHT22;4529;51.360;12.474;2022-07-29T13:19:47;28.50;87.50
8988;DHT22;4529;51.360;12.474;2022-07-29T13:30:00;28.30;87.60
8988;DHT22;4529;51.360;12.474;2022-07-29T13:35:05;28.30;85.40
8988;DHT22;4529;51.360;12.474;2022-07-29T13:40:09;28.30;84.90
8988;DHT22;4529;51.360;12.474;2022-07-29T13:45:12;28.30;84.70
8988;DHT22;4529;51.360;12.474;2022-07-29T13:50:16;28.10;87.60
8988;DHT22;4529;51.360;12.474;2022-07-29T13:55:19;28.20;90.00
8988;DHT22;4529;51.360;12.474;2022-07-29T14:00:23;28.40;85.50
8988;DHT22;4529;51.360;12.474;2022-07-29T14:05:26;28.60;86.90
8988;DHT22;4529;51.360;12.474;2022-07-29T14:10:30;28.60;90.40
8988;DHT22;4529;51.360;12.474;2022-07-29T14:15:34;28.50;88.20
8988;DHT22;4529;51.360;12.474;2022-07-29T14:20:38;28.50;87.40
8988;DHT22;4529;51.360;12.474;2022-07-29T14:25:41;28.50;87.90
8988;DHT22;4529;51.360;12.474;2022-07-29T14:30:46;28.60;86.10
8988;DHT22;4529;51.360;12.474;2022-07-29T14:35:49;28.50;86.00
8988;DHT22;4529;51.360;12.474;2022-07-29T14:40:52;28.50;84.00
8988;DHT22;4529;51.360;12.474;2022-07-29T14:45:56;28.60;85.50
8988;DHT22;4529;51.360;12.474;2022-07-29T14:50:59;28.50;84.40
8988;DHT22;4529;51.360;12.474;2022-07-29T14:56:04;28.50;84.60
8988;DHT22;4529;51.360;12.474;2022-07-29T15:01:07;28.50;84.50
8988;DHT22;4529;51.360;12.474;2022-07-29T15:06:11;28.40;84.20
8988;DHT22;4529;51.360;12.474;2022-07-29T15:11:15;28.40;84.60
8988;DHT22;4529;51.360;12.474;2022-07-29T15:16:19;28.40;84.00
8988;DHT22;4529;51.360;12.474;2022-07-29T15:21:24;28.40;85.30
8988;DHT22;4529;51.360;12.474;2022-07-29T15:26:28;28.50;84.40
8988;DHT22;4529;51.360;12.474;2022-07-29T15:31:32;28.50;87.90
8988;DHT22;4529;51.360;12.474;2022-07-29T15:36:36;28.40;86.00
8988;DHT22;4529;51.360;12.474;2022-07-29T15:41:40;28.50;88.00
8988;DHT22;4529;51.360;12.474;2022-07-29T15:46:44;28.40;90.40
8988;DHT22;4529;51.360;12.474;2022-07-29T15:51:48;27.80;94.30
8988;DHT22;4529;51.360;12.474;2022-07-29T15:56:53;27.30;96.20
8988;DHT22;4529;51.360;12.474;2022-07-29T16:01:57;27.00;98.90
8988;DHT22;4529;51.360;12.474;2022-07-29T16:07:01;26.70;99.90
8988;DHT22;4529;51.360;12.474;2022-07-29T16:12:05;26.30;99.90
8988;DHT22;4529;51.360;12.474;2022-07-29T16:17:08;26.30;99.90
8988;DHT22;4529;51.360;12.474;2022-07-29T16:22:12;26.00;99.90
8988;DHT22;4529;51.360;12.474;2022-07-29T16:27:15;25.90;99.90
8988;DHT22;4529;51.360;12.474;2022-07-29T16:32:20;25.60;99.90
8988;DHT22;4529;51.360;12.474;2022-07-29T16:37:23;25.50;99.90
8988;DHT22;4529;51.360;12.474;2022-07-29T16:42:26;25.50;99.90
8988;DHT22;4529;51.360;12.474;2022-07-29T16:47:30;25.60;99.90
8988;DHT22;4529;51.360;12.474;2022-07-29T16:52:33;25.60;99.90
8988;DHT22;4529;51.360;12.474;2022-07-29T16:57:37;25.50;99.90
8988;DHT22;4529;51.360;12.474;2022-07-29T17:02:40;25.40;99.90
8988;DHT22;4529;51.360;12.474;2022-07-29T17:07:44;25.90;99.90
8988;DHT22;4529;51.360;12.474;2022-07-29T17:12:48;25.80;99.90
8988;DHT22;4529;51.360;12.474;2022-07-29T17:17:51;25.80;99.90
8988;DHT22;4529;51.360;12.474;2022-07-29T17:22:55;25.80;99.90
8988;DHT22;4529;51.360;12.474;2022-07-29T17:27:58;25.80;99.90
8988;DHT22;4529;51.360;12.474;2022-07-29T17:33:02;25.50;99.90
8988;DHT22;4529;51.360;12.474;2022-07-29T17:38:05;25.30;99.90
8988;DHT22;4529;51.360;12.474;2022-07-29T17:43:09;25.10;99.90
8988;DHT22;4529;51.360;12.474;2022-07-29T17:48:12;25.00;99.90
8988;DHT22;4529;51.360;12.474;2022-07-29T17:53:16;24.90;99.90
8988;DHT22;4529;51.360;12.474;2022-07-29T17:58:24;24.80;99.90
8988;DHT22;4529;51.360;12.474;2022-07-29T18:03:28;24.70;99.90
8988;DHT22;4529;51.360;12.474;2022-07-29T18:08:31;24.70;99.90
8988;DHT22;4529;51.360;12.474;2022-07-29T18:13:34;24.60;99.90
8988;DHT22;4529;51.360;12.474;2022-07-29T18:18:38;24.40;99.90
8988;DHT22;4529;51.360;12.474;2022-07-29T18:23:41;24.40;99.90
8988;DHT22;4529;51.360;12.474;2022-07-29T18:28:45;24.30;99.90
8988;DHT22;4529;51.360;12.474;2022-07-29T18:33:48;24.30;99.90
8988;DHT22;4529;51.360;12.474;2022-07-29T18:38:52;24.10;99.90
8988;DHT22;4529;51.360;12.474;2022-07-29T18:43:55;24.00;99.90
8988;DHT22;4529;51.360;12.474;2022-07-29T18:48:59;24.00;99.90
8988;DHT22;4529;51.360;12.474;2022-07-29T18:54:03;24.10;99.90
8988;DHT22;4529;51.360;12.474;2022-07-29T18:59:06;24.00;99.90
8988;DHT22;4529;51.360;12.474;2022-07-29T19:04:11;24.00;99.90
8988;DHT22;4529;51.360;12.474;2022-07-29T19:09:15;24.00;99.90
8988;DHT22;4529;51.360;12.474;2022-07-29T19:14:19;24.00;99.90
8988;DHT22;4529;51.360;12.474;2022-07-29T19:19:23;24.00;99.90
8988;DHT22;4529;51.360;12.474;2022-07-29T19:24:27;24.00;99.90
8988;DHT22;4529;51.360;12.474;2022-07-29T19:29:36;24.00;99.90
8988;DHT22;4529;51.360;12.474;2022-07-29T19:34:40;23.90;99.90
8988;DHT22;4529;51.360;12.474;2022-07-29T19:39:43;23.90;99.90
8988;DHT22;4529;51.360;12.474;2022-07-29T19:44:47;23.90;99.90
8988;DHT22;4529;51.360;12.474;2022-07-29T19:49:50;23.70;99.90
8988;DHT22;4529;51.360;12.474;2022-07-29T19:54:54;23.80;99.90
8988;DHT22;4529;51.360;12.474;2022-07-29T19:59:57;23.70;99.90
8988;DHT22;4529;51.360;12.474;2022-07-29T20:05:01;23.60;99.90
8988;DHT22;4529;51.360;12.474;2022-07-29T20:10:04;23.50;99.90
8988;DHT22;4529;51.360;12.474;2022-07-29T20:15:08;23.40;99.90
8988;DHT22;4529;51.360;12.474;2022-07-29T20:20:12;23.20;99.90
8988;DHT22;4529;51.360;12.474;2022-07-29T20:25:19;23.10;99.90
8988;DHT22;4529;51.360;12.474;2022-07-29T20:30:23;23.10;99.90
8988;DHT22;4529;51.360;12.474;2022-07-29T20:35:26;23.00;99.90
8988;DHT22;4529;51.360;12.474;2022-07-29T20:40:30;22.80;99.90
8988;DHT22;4529;51.360;12.474;2022-07-29T20:45:35;22.80;99.90
8988;DHT22;4529;51.360;12.474;2022-07-29T20:50:38;22.70;99.90
8988;DHT22;4529;51.360;12.474;2022-07-29T20:55:42;22.80;99.90
8988;DHT22;4529;51.360;12.474;2022-07-29T21:00:45;22.80;99.90
8988;DHT22;4529;51.360;12.474;2022-07-29T21:05:49;22.70;99.90
8988;DHT22;4529;51.360;12.474;2022-07-29T21:10:52;22.70;99.90
8988;DHT22;4529;51.360;12.474;2022-07-29T21:15:56;22.80;99.90
8988;DHT22;4529;51.360;12.474;2022-07-29T21:20:59;23.00;99.90
8988;DHT22;4529;51.360;12.474;2022-07-29T21:26:03;23.10;99.90
8988;DHT22;4529;51.360;12.474;2022-07-29T21:31:07;22.90;99.90
8988;DHT22;4529;51.360;12.474;2022-07-29T21:36:11;22.80;99.90
8988;DHT22;4529;51.360;12.474;2022-07-29T21:41:14;22.80;99.90
8988;DHT22;4529;51.360;12.474;2022-07-29T21:46:18;22.80;99.90
8988;DHT22;4529;51.360;12.474;2022-07-29T21:51:21;22.60;99.90
8988;DHT22;4529;51.360;12.474;2022-07-29T21:56:25;22.50;99.90
8988;DHT22;4529;51.360;12.474;2022-07-29T22:01:28;22.30;99.90
8988;DHT22;4529;51.360;12.474;2022-07-29T22:06:32;22.20;99.90
8988;DHT22;4529;51.360;12.474;2022-07-29T22:11:35;22.10;99.90
8988;DHT22;4529;51.360;12.474;2022-07-29T22:16:39;22.20;99.90
8988;DHT22;4529;51.360;12.474;2022-07-29T22:21:43;21.90;99.90
8988;DHT22;4529;51.360;12.474;2022-07-29T22:26:47;21.80;99.90
8988;DHT22;4529;51.360;12.474;2022-07-29T22:31:52;21.80;99.90
8988;DHT22;4529;51.360;12.474;2022-07-29T22:36:56;21.50;99.90
8988;DHT22;4529;51.360;12.474;2022-07-29T22:42:00;21.20;99.90
8988;DHT22;4529;51.360;12.474;2022-07-29T22:47:04;20.90;99.90
8988;DHT22;4529;51.360;12.474;2022-07-29T22:52:08;20.90;99.90
8988;DHT22;4529;51.360;12.474;2022-07-29T22:57:12;20.80;99.90
8988;DHT22;4529;51.360;12.474;2022-07-29T23:02:15;20.70;99.90
8988;DHT22;4529;51.360;12.474;2022-07-29T23:07:19;20.60;99.90
8988;DHT22;4529;51.360;12.474;2022-07-29T23:12:22;20.50;99.90
8988;DHT22;4529;51.360;12.474;2022-07-29T23:17:26;20.30;99.90
8988;DHT22;4529;51.360;12.474;2022-07-29T23:22:29;20.20;99.90
8988;DHT22;4529;51.360;12.474;2022-07-29T23:27:33;20.20;99.90
8988;DHT22;4529;51.360;12.474;2022-07-29T23:32:36;20.20;99.90
8988;DHT22;4529;51.360;12.474;2022-07-29T23:37:40;20.10;99.90
8988;DHT22;4529;51.360;12.474;2022-07-29T23:42:43;20.00;99.90
8988;DHT22;4529;51.360;12.474;2022-07-29T23:47:46;19.90;99.90
8988;DHT22;4529;51.360;12.474;2022-07-29T23:52:50;19.90;99.90
8988;DHT22;4529;51.360;12.474;2022-07-29T23:57:53;19.80;99.90
